createdAt,value
2022-12-13T00:01:28.913Z,99.90
2022-12-13T00:03:57.853Z,99.90
2022-12-13T00:06:25.501Z,99.90
2022-12-13T00:08:53.634Z,99.90
2022-12-13T00:11:21.295Z,99.90
2022-12-13T00:13:48.621Z,99.90
2022-12-13T00:16:18.821Z,99.90
2022-12-13T00:18:55.576Z,99.90
2022-12-13T00:21:26.006Z,99.90
2022-12-13T00:23:53.481Z,99.90
2022-12-13T00:26:26.201Z,99.90
2022-12-13T00:28:54.261Z,99.90
2022-12-13T00:34:10.824Z,99.90
2022-12-13T00:36:37.859Z,99.90
2022-12-13T00:39:05.127Z,99.90
2022-12-13T00:41:34.414Z,99.90
2022-12-13T00:44:02.276Z,99.90
2022-12-13T00:46:30.014Z,99.90
2022-12-13T00:48:59.290Z,99.90
2022-12-13T00:51:29.316Z,99.90
2022-12-13T00:53:56.986Z,99.90
2022-12-13T00:56:27.217Z,99.90
2022-12-13T00:58:55.335Z,99.90
2022-12-13T01:01:25.953Z,99.90
2022-12-13T01:03:58.017Z,99.90
2022-12-13T01:06:39.126Z,99.90
2022-12-13T01:09:12.529Z,99.90
2022-12-13T01:11:39.555Z,99.90
2022-12-13T01:14:06.567Z,99.90
2022-12-13T01:16:33.856Z,99.90
2022-12-13T01:19:01.209Z,99.90
2022-12-13T01:21:29.815Z,99.90
2022-12-13T01:24:05.200Z,99.90
2022-12-13T01:26:32.826Z,99.90
2022-12-13T01:29:00.562Z,99.90
2022-12-13T01:31:28.171Z,99.90
2022-12-13T01:33:55.377Z,99.90
2022-12-13T01:36:27.450Z,99.90
2022-12-13T01:38:58.464Z,99.90
2022-12-13T01:41:28.543Z,99.90
2022-12-13T01:44:04.906Z,99.90
2022-12-13T01:46:36.212Z,99.90
2022-12-13T01:49:19.396Z,99.90
2022-12-13T01:51:57.834Z,99.90
2022-12-13T01:54:34.093Z,99.90
2022-12-13T01:57:06.035Z,99.90
2022-12-13T01:59:36.556Z,99.90
2022-12-13T02:02:05.190Z,99.90
2022-12-13T02:04:55.510Z,99.90
2022-12-13T02:07:27.777Z,99.90
2022-12-13T02:10:00.346Z,99.90
2022-12-13T02:12:30.871Z,99.90
2022-12-13T02:15:07.411Z,99.90
2022-12-13T02:17:55.325Z,99.90
2022-12-13T02:20:57.117Z,99.90
2022-12-13T02:23:24.119Z,99.90
2022-12-13T02:26:07.240Z,99.90
2022-12-13T02:29:00.429Z,99.90
2022-12-13T02:31:36.501Z,99.90
2022-12-13T02:34:10.942Z,99.90
2022-12-13T02:36:50.796Z,99.90
2022-12-13T02:39:30.728Z,99.90
2022-12-13T02:42:06.040Z,99.90
2022-12-13T02:44:43.225Z,99.90
2022-12-13T02:47:32.666Z,99.90
2022-12-13T02:50:05.901Z,99.90
2022-12-13T02:52:33.815Z,99.90
2022-12-13T02:55:06.297Z,99.90
2022-12-13T02:57:39.301Z,99.90
2022-12-13T03:00:09.229Z,99.90
2022-12-13T03:02:51.303Z,99.90
2022-12-13T03:05:46.003Z,99.90
2022-12-13T03:08:38.962Z,99.90
2022-12-13T03:11:13.724Z,99.90
2022-12-13T03:14:20.214Z,99.90
2022-12-13T03:16:52.909Z,99.90
2022-12-13T03:19:20.318Z,99.90
2022-12-13T03:21:50.146Z,99.90
2022-12-13T03:24:18.839Z,99.90
2022-12-13T03:26:47.246Z,99.90
2022-12-13T03:29:14.490Z,99.90
2022-12-13T03:31:52.363Z,99.90
2022-12-13T03:34:22.381Z,99.90
2022-12-13T03:36:50.006Z,99.90
2022-12-13T03:39:17.135Z,99.90
2022-12-13T03:41:44.482Z,99.90
2022-12-13T03:44:11.646Z,99.90
2022-12-13T03:46:39.016Z,99.90
2022-12-13T03:49:06.100Z,99.90
2022-12-13T03:51:33.289Z,99.90
2022-12-13T03:54:00.287Z,99.90
2022-12-13T03:56:27.333Z,99.90
2022-12-13T03:58:54.350Z,99.90
2022-12-13T04:01:22.329Z,99.90
2022-12-13T04:03:49.425Z,99.90
2022-12-13T04:06:22.468Z,99.90
2022-12-13T04:08:51.940Z,99.90
2022-12-13T04:11:42.694Z,99.90
2022-12-13T04:14:12.006Z,99.90
2022-12-13T04:16:39.364Z,99.90
2022-12-13T04:19:06.545Z,99.90
2022-12-13T04:21:33.637Z,99.90
2022-12-13T04:24:01.454Z,99.90
2022-12-13T04:26:29.188Z,99.90
2022-12-13T04:28:56.425Z,99.90
2022-12-13T04:31:23.791Z,99.90
2022-12-13T04:33:51.267Z,99.90
2022-12-13T04:36:30.842Z,99.90
2022-12-13T04:39:21.948Z,99.90
2022-12-13T04:41:51.889Z,99.90
2022-12-13T04:44:27.866Z,99.90
2022-12-13T04:47:01.175Z,99.90
2022-12-13T04:49:30.335Z,99.90
2022-12-13T04:52:01.158Z,99.90
2022-12-13T04:54:36.379Z,99.90
2022-12-13T04:57:06.735Z,99.90
2022-12-13T04:59:33.874Z,99.90
2022-12-13T05:02:00.873Z,99.90
2022-12-13T05:04:32.750Z,99.90
2022-12-13T05:07:01.272Z,99.90
2022-12-13T05:09:28.360Z,99.90
2022-12-13T05:12:01.057Z,99.90
2022-12-13T05:14:31.465Z,99.90
2022-12-13T05:16:59.999Z,99.90
2022-12-13T05:19:31.280Z,99.90
2022-12-13T05:22:01.573Z,99.90
2022-12-13T05:24:30.547Z,99.90
2022-12-13T05:26:58.766Z,99.90
2022-12-13T05:29:27.635Z,99.90
2022-12-13T05:31:54.759Z,99.90
2022-12-13T05:34:21.872Z,99.90
2022-12-13T05:36:48.855Z,99.90
2022-12-13T05:39:27.963Z,99.90
2022-12-13T05:42:02.355Z,99.90
2022-12-13T05:44:31.545Z,99.90
2022-12-13T05:47:02.249Z,99.90
2022-12-13T05:49:31.095Z,99.90
2022-12-13T05:51:58.447Z,99.90
2022-12-13T05:54:25.502Z,99.90
2022-12-13T05:56:52.670Z,99.90
2022-12-13T05:59:19.659Z,99.90
2022-12-13T06:01:46.694Z,99.90
2022-12-13T06:04:22.444Z,99.90
2022-12-13T06:06:51.510Z,99.90
2022-12-13T06:09:19.287Z,99.90
2022-12-13T06:11:46.266Z,99.90
2022-12-13T06:14:22.411Z,99.90
2022-12-13T06:16:51.833Z,99.90
2022-12-13T06:19:19.991Z,99.90
2022-12-13T06:21:46.971Z,99.90
2022-12-13T06:24:19.140Z,99.90
2022-12-13T06:26:46.520Z,99.90
2022-12-13T06:29:23.053Z,99.90
2022-12-13T06:32:02.188Z,99.90
2022-12-13T06:34:32.419Z,99.90
2022-12-13T06:37:00.717Z,99.90
2022-12-13T06:39:32.996Z,99.90
2022-12-13T06:42:06.434Z,99.90
2022-12-13T06:44:34.432Z,99.90
2022-12-13T06:47:11.864Z,99.90
2022-12-13T06:49:41.745Z,99.90
2022-12-13T06:52:11.993Z,99.90
2022-12-13T06:54:39.464Z,99.90
2022-12-13T06:57:06.893Z,99.90
2022-12-13T06:59:34.097Z,99.90
2022-12-13T07:02:03.560Z,99.90
2022-12-13T07:04:32.255Z,99.90
2022-12-13T07:07:01.080Z,99.90
2022-12-13T07:09:31.120Z,99.90
2022-12-13T07:11:58.729Z,99.90
2022-12-13T07:14:26.297Z,99.90
2022-12-13T07:16:57.950Z,99.90
2022-12-13T07:19:35.360Z,99.90
2022-12-13T07:22:06.088Z,99.90
2022-12-13T07:24:35.249Z,99.90
2022-12-13T07:27:03.730Z,99.90
2022-12-13T07:29:31.185Z,99.90
2022-12-13T07:32:01.852Z,99.90
2022-12-13T07:34:30.693Z,99.90
2022-12-13T07:36:58.198Z,99.90
2022-12-13T07:39:26.370Z,99.90
2022-12-13T07:41:57.426Z,99.90
2022-12-13T07:44:25.267Z,99.90
2022-12-13T07:46:53.081Z,99.90
2022-12-13T07:49:20.678Z,99.90
2022-12-13T07:51:48.232Z,99.90
2022-12-13T07:54:15.611Z,99.90
2022-12-13T07:56:42.965Z,99.90
2022-12-13T07:59:11.019Z,99.90
2022-12-13T08:01:38.456Z,99.90
2022-12-13T08:04:06.189Z,99.90
2022-12-13T08:06:40.246Z,99.90
2022-12-13T08:09:07.798Z,99.90
2022-12-13T08:11:35.171Z,99.90
2022-12-13T08:14:04.794Z,99.90
2022-12-13T08:16:32.408Z,99.90
2022-12-13T08:19:01.980Z,99.90
2022-12-13T08:22:01.758Z,99.90
2022-12-13T08:24:31.341Z,99.90
2022-12-13T08:27:01.710Z,99.90
2022-12-13T08:29:34.478Z,99.90
2022-12-13T08:32:21.272Z,99.90
2022-12-13T08:44:39.454Z,99.90
2022-12-13T08:47:10.955Z,99.90
2022-12-13T08:50:04.722Z,99.90
2022-12-13T09:17:24.704Z,99.90
2022-12-13T09:19:57.834Z,99.90
2022-12-13T09:22:33.797Z,99.90
2022-12-13T09:25:06.389Z,99.90
2022-12-13T09:27:43.465Z,99.90
2022-12-13T09:30:13.906Z,99.90
2022-12-13T09:32:41.907Z,99.90
2022-12-13T09:35:10.430Z,99.90
2022-12-13T09:37:42.541Z,99.90
2022-12-13T09:40:25.770Z,99.90
2022-12-13T09:43:12.629Z,99.90
2022-12-13T09:59:04.621Z,97.80
2022-12-13T10:36:50.585Z,96.70
2022-12-13T10:39:42.531Z,95.50
2022-12-13T10:43:01.551Z,94.60
2022-12-13T10:59:59.612Z,93.70
2022-12-13T11:11:59.292Z,93.40
2022-12-13T11:14:33.082Z,94.50
2022-12-13T11:17:09.158Z,93.40
2022-12-13T11:19:56.937Z,93.40
2022-12-13T11:25:42.821Z,92.80
2022-12-13T11:28:32.245Z,92.70
2022-12-13T11:41:55.838Z,91.20
2022-12-13T11:44:59.138Z,92.10
2022-12-13T11:47:46.413Z,91.90
2022-12-13T11:51:00.641Z,92.20
2022-12-13T12:01:13.523Z,90.60
2022-12-13T12:04:30.843Z,90.70
2022-12-13T12:35:24.526Z,90.30
2022-12-13T12:42:14.810Z,91.00
2022-12-13T12:44:50.661Z,91.90
2022-12-13T12:51:00.956Z,92.60
2022-12-13T12:53:45.477Z,92.70
2022-12-13T12:56:34.686Z,93.20
2022-12-13T12:59:48.184Z,93.40
2022-12-13T13:02:31.033Z,93.00
2022-12-13T13:05:07.204Z,93.10
2022-12-13T13:07:58.407Z,93.20
2022-12-13T13:20:47.521Z,92.80
2022-12-13T13:32:41.304Z,93.20
2022-12-13T13:35:50.188Z,93.30
2022-12-13T13:38:47.672Z,92.90
2022-12-13T13:44:46.382Z,93.20
2022-12-13T13:54:01.000Z,92.90
2022-12-13T14:01:11.097Z,93.20
2022-12-13T14:04:03.081Z,93.60
2022-12-13T14:06:48.416Z,93.40
2022-12-13T14:09:59.145Z,93.40
2022-12-13T14:12:53.715Z,93.60
2022-12-13T14:16:20.323Z,93.50
2022-12-13T14:19:08.200Z,94.00
2022-12-13T14:21:57.153Z,94.30
2022-12-13T14:25:03.272Z,94.20
2022-12-13T14:27:47.675Z,94.40
2022-12-13T14:30:27.871Z,94.80
2022-12-13T14:33:10.943Z,94.70
2022-12-13T14:36:16.102Z,95.20
2022-12-13T14:39:16.261Z,95.40
2022-12-13T14:41:58.835Z,95.80
2022-12-13T14:44:50.711Z,96.20
2022-12-13T14:47:19.154Z,96.40
2022-12-13T14:49:54.192Z,96.80
2022-12-13T14:52:27.911Z,97.20
2022-12-13T14:55:01.582Z,97.40
2022-12-13T14:57:32.182Z,97.90
2022-12-13T15:00:03.315Z,98.20
2022-12-13T15:02:37.639Z,98.60
2022-12-13T15:05:09.046Z,99.00
2022-12-13T15:07:45.431Z,99.20
2022-12-13T15:10:20.664Z,99.60
2022-12-13T15:12:49.738Z,99.70
2022-12-13T15:15:33.155Z,99.90
2022-12-13T15:18:16.370Z,99.90
2022-12-13T15:20:46.694Z,99.90
2022-12-13T15:23:33.294Z,99.90
2022-12-13T15:26:28.254Z,99.90
2022-12-13T15:29:10.243Z,99.90
2022-12-13T15:31:38.928Z,99.90
2022-12-13T15:34:30.815Z,99.90
2022-12-13T15:37:01.037Z,99.90
2022-12-13T15:39:28.892Z,99.90
2022-12-13T15:41:56.777Z,99.90
2022-12-13T15:44:38.622Z,99.90
2022-12-13T15:47:12.402Z,99.90
2022-12-13T15:50:05.321Z,99.90
2022-12-13T15:52:41.360Z,99.90
2022-12-13T15:55:08.464Z,99.90
2022-12-13T15:57:49.296Z,99.90
2022-12-13T16:00:17.010Z,99.90
2022-12-13T16:02:56.162Z,99.90
2022-12-13T16:05:35.123Z,99.90
2022-12-13T16:08:14.286Z,99.90
2022-12-13T16:10:50.340Z,99.90
2022-12-13T16:13:30.236Z,99.90
2022-12-13T16:16:28.260Z,99.90
2022-12-13T16:18:57.858Z,99.90
2022-12-13T16:21:25.962Z,99.90
2022-12-13T16:23:53.340Z,99.90
2022-12-13T16:26:28.749Z,99.90
2022-12-13T16:29:00.279Z,99.90
2022-12-13T16:31:35.807Z,99.90
2022-12-13T16:34:05.198Z,99.90
2022-12-13T16:36:32.491Z,99.90
2022-12-13T16:38:59.587Z,99.90
2022-12-13T16:41:29.790Z,99.90
2022-12-13T16:44:00.496Z,99.90
2022-12-13T16:47:15.287Z,99.90
2022-12-13T16:49:21.778Z,99.90
2022-12-13T16:51:49.499Z,99.90
2022-12-13T16:54:18.754Z,99.90
2022-12-13T16:56:46.652Z,99.90
2022-12-13T16:59:18.743Z,99.90
2022-12-13T17:01:47.702Z,99.90
2022-12-13T17:04:21.128Z,99.90
2022-12-13T17:06:54.954Z,99.90
2022-12-13T17:09:25.650Z,99.90
2022-12-13T17:11:53.448Z,99.90
2022-12-13T17:14:21.521Z,99.90
2022-12-13T17:16:48.871Z,99.90
2022-12-13T17:19:17.939Z,99.90
2022-12-13T17:21:45.473Z,99.90
2022-12-13T17:24:12.826Z,99.90
2022-12-13T17:26:41.604Z,99.90
2022-12-13T17:29:25.568Z,99.90
2022-12-13T17:31:53.953Z,99.90
2022-12-13T17:34:21.819Z,99.90
2022-12-13T17:36:50.515Z,99.90
2022-12-13T17:39:18.564Z,99.90
2022-12-13T17:41:54.433Z,99.90
2022-12-13T17:44:24.606Z,99.90
2022-12-13T17:46:54.909Z,99.90
2022-12-13T17:49:23.359Z,99.90
2022-12-13T17:51:54.257Z,99.90
2022-12-13T17:54:27.367Z,99.90
2022-12-13T17:56:55.637Z,99.90
2022-12-13T17:59:23.777Z,99.90
2022-12-13T18:01:51.876Z,99.90
2022-12-13T18:04:19.401Z,99.90
2022-12-13T18:06:46.629Z,99.90
2022-12-13T18:09:14.384Z,99.90
2022-12-13T18:11:43.803Z,99.90
2022-12-13T18:14:11.565Z,99.90
2022-12-13T18:16:40.179Z,99.90
2022-12-13T18:19:10.805Z,99.90
2022-12-13T18:21:39.065Z,99.90
2022-12-13T18:24:07.166Z,99.90
2022-12-13T18:26:36.368Z,99.90
2022-12-13T18:29:06.920Z,99.90
2022-12-13T18:31:34.861Z,99.90
2022-12-13T18:34:05.662Z,99.90
2022-12-13T18:36:36.034Z,99.90
2022-12-13T18:39:04.703Z,99.90
2022-12-13T18:41:33.811Z,99.90
2022-12-13T18:44:05.367Z,99.90
2022-12-13T18:46:35.611Z,99.90
2022-12-13T18:49:07.620Z,99.90
2022-12-13T18:51:36.818Z,99.90
2022-12-13T18:54:04.601Z,99.90
2022-12-13T18:56:33.011Z,99.90
2022-12-13T18:59:00.849Z,99.90
2022-12-13T19:01:31.248Z,99.90
2022-12-13T19:04:01.154Z,99.90
2022-12-13T19:06:29.171Z,99.90
2022-12-13T19:09:00.888Z,99.90
2022-12-13T19:11:29.855Z,99.90
2022-12-13T19:13:57.910Z,99.90
2022-12-13T19:16:27.202Z,99.90
2022-12-13T19:18:55.255Z,99.90
2022-12-13T19:21:23.652Z,99.90
2022-12-13T19:23:57.566Z,99.90
2022-12-13T19:26:28.718Z,99.90
2022-12-13T19:28:58.991Z,99.90
2022-12-13T19:31:32.191Z,99.90
2022-12-13T19:34:03.153Z,99.90
2022-12-13T19:36:35.674Z,99.90
2022-12-13T19:39:05.255Z,99.90
2022-12-13T19:41:34.070Z,99.90
2022-12-13T19:44:08.659Z,99.90
2022-12-13T19:46:36.663Z,99.90
2022-12-13T19:49:07.168Z,99.90
2022-12-13T19:51:39.607Z,99.90
2022-12-13T19:54:07.751Z,99.90
2022-12-13T19:56:36.442Z,99.90
2022-12-13T19:59:05.979Z,99.90
2022-12-13T20:01:36.213Z,99.90
2022-12-13T20:04:06.371Z,99.90
2022-12-13T20:06:35.874Z,99.90
2022-12-13T20:09:06.835Z,99.90
2022-12-13T20:11:35.162Z,99.90
2022-12-13T20:14:03.399Z,99.90
2022-12-13T20:16:33.334Z,99.90
2022-12-13T20:19:02.169Z,99.90
2022-12-13T20:21:31.243Z,99.90
2022-12-13T20:23:59.827Z,99.90
2022-12-13T20:26:31.384Z,99.90
2022-12-13T20:29:01.267Z,99.90
2022-12-13T20:31:32.528Z,99.90
2022-12-13T20:34:04.067Z,99.90
2022-12-13T20:36:32.604Z,99.90
2022-12-13T20:39:03.346Z,99.90
2022-12-13T20:41:34.719Z,99.90
2022-12-13T20:44:05.182Z,99.90
2022-12-13T20:46:34.180Z,99.90
2022-12-13T20:49:05.090Z,99.90
2022-12-13T20:51:35.621Z,99.90
2022-12-13T20:54:04.180Z,99.90
2022-12-13T20:56:35.714Z,99.90
2022-12-13T20:59:05.510Z,99.90
2022-12-13T21:01:36.568Z,99.90
2022-12-13T21:04:06.565Z,99.90
2022-12-13T21:06:38.313Z,99.90
2022-12-13T21:09:07.182Z,99.90
2022-12-13T21:11:37.770Z,99.90
2022-12-13T21:14:10.074Z,99.90
2022-12-13T21:17:02.233Z,99.90
2022-12-13T21:19:38.986Z,99.90
2022-12-13T21:22:07.971Z,99.90
2022-12-13T21:24:35.321Z,99.90
2022-12-13T21:27:02.826Z,99.90
2022-12-13T21:29:30.289Z,99.90
2022-12-13T21:31:57.481Z,99.90
2022-12-13T21:34:24.898Z,99.90
2022-12-13T21:36:53.018Z,99.90
2022-12-13T21:39:28.020Z,99.90
2022-12-13T21:41:55.511Z,99.90
2022-12-13T21:44:22.803Z,99.90
2022-12-13T21:49:37.691Z,99.90
2022-12-13T21:52:05.014Z,99.90
2022-12-13T21:54:31.985Z,99.90
2022-12-13T21:57:17.405Z,99.90
2022-12-13T21:59:44.473Z,99.90
2022-12-13T22:02:19.978Z,99.90
2022-12-13T22:04:54.388Z,99.90
2022-12-13T22:07:23.664Z,99.90
2022-12-13T22:09:51.557Z,99.90
2022-12-13T22:12:35.626Z,99.90
2022-12-13T22:15:04.720Z,99.90
2022-12-13T22:17:35.723Z,99.90
2022-12-13T22:20:12.317Z,99.90
2022-12-13T22:22:40.693Z,99.90
2022-12-13T22:25:08.671Z,99.90
2022-12-13T22:27:35.927Z,99.90
2022-12-13T22:30:03.921Z,99.90
2022-12-13T22:32:32.226Z,99.90
2022-12-13T22:34:59.761Z,99.90
2022-12-13T22:37:27.439Z,99.90
2022-12-13T22:39:54.469Z,99.90
2022-12-13T22:42:21.827Z,99.90
2022-12-13T22:44:48.916Z,99.90
2022-12-13T22:47:16.141Z,99.90
2022-12-13T22:49:43.132Z,99.90
2022-12-13T22:52:10.494Z,99.90
2022-12-13T22:54:37.555Z,99.90
2022-12-13T22:57:04.740Z,99.90
2022-12-13T22:59:32.068Z,99.90
2022-12-13T23:02:02.529Z,99.90
2022-12-13T23:04:32.540Z,99.90
2022-12-13T23:06:59.760Z,99.90
2022-12-13T23:09:26.921Z,99.90
2022-12-13T23:12:12.763Z,99.90
2022-12-13T23:14:40.091Z,99.90
2022-12-13T23:17:07.881Z,99.90
2022-12-13T23:19:48.850Z,99.90
2022-12-13T23:22:23.590Z,99.90
2022-12-13T23:24:51.942Z,99.90
2022-12-13T23:27:21.083Z,99.90
2022-12-13T23:29:48.623Z,99.90
2022-12-13T23:32:15.670Z,99.90
2022-12-13T23:34:42.909Z,99.90
2022-12-13T23:37:09.930Z,99.90
2022-12-13T23:39:36.927Z,99.90
2022-12-13T23:42:04.097Z,99.90
2022-12-13T23:44:31.159Z,99.90
2022-12-13T23:46:58.191Z,99.90
2022-12-13T23:49:25.331Z,99.90
2022-12-13T23:51:52.522Z,99.90
2022-12-13T23:54:20.328Z,99.90
2022-12-13T23:56:48.027Z,99.90
2022-12-13T23:59:16.473Z,99.90
